createdAt,value
2019-03-13T00:00:23.918Z,2.30
2019-03-13T00:02:55.489Z,2.37
2019-03-13T00:05:25.445Z,1.73
2019-03-13T00:07:55.331Z,1.82
2019-03-13T00:10:26.086Z,2.23
2019-03-13T00:12:55.970Z,2.60
2019-03-13T00:15:25.950Z,2.70
2019-03-13T00:17:55.899Z,3.30
2019-03-13T00:20:27.871Z,1.93
2019-03-13T00:22:57.677Z,2.30
2019-03-13T00:25:27.539Z,2.53
2019-03-13T00:27:57.767Z,3.10
2019-03-13T00:30:27.659Z,3.92
2019-03-13T00:32:57.741Z,4.17
2019-03-13T00:35:27.795Z,3.03
2019-03-13T00:37:57.689Z,4.30
2019-03-13T00:40:28.345Z,3.43
2019-03-13T00:42:58.179Z,3.00
2019-03-13T00:45:29.138Z,3.80
2019-03-13T00:47:59.080Z,3.75
2019-03-13T00:50:31.108Z,4.50
2019-03-13T00:53:01.010Z,3.37
2019-03-13T00:55:30.984Z,3.90
2019-03-13T00:58:00.947Z,4.03
2019-03-13T01:00:58.827Z,3.27
2019-03-13T01:03:56.658Z,2.90
2019-03-13T01:06:40.365Z,2.47
2019-03-13T01:09:11.279Z,3.00
2019-03-13T01:11:41.799Z,3.67
2019-03-13T01:14:11.811Z,3.37
2019-03-13T01:16:42.878Z,3.43
2019-03-13T01:19:14.103Z,4.10
2019-03-13T01:21:45.028Z,3.97
2019-03-13T01:24:14.866Z,2.52
2019-03-13T01:26:44.923Z,3.13
2019-03-13T01:29:14.878Z,2.93
2019-03-13T01:32:06.884Z,3.00
2019-03-13T01:34:53.112Z,2.50
2019-03-13T01:37:22.924Z,2.45
2019-03-13T01:39:52.930Z,2.33
2019-03-13T01:42:22.750Z,1.87
2019-03-13T01:44:53.585Z,2.40
2019-03-13T01:47:23.582Z,2.47
2019-03-13T01:49:53.341Z,2.10
2019-03-13T01:52:23.075Z,2.10
2019-03-13T01:54:52.946Z,2.00
2019-03-13T01:57:22.726Z,2.05
2019-03-13T01:59:52.591Z,1.60
2019-03-13T02:02:22.487Z,1.77
2019-03-13T02:04:52.417Z,1.85
2019-03-13T02:07:22.327Z,1.70
2019-03-13T02:09:52.197Z,1.40
2019-03-13T02:12:22.081Z,2.00
2019-03-13T02:14:52.835Z,1.40
2019-03-13T02:17:22.793Z,1.70
2019-03-13T02:19:52.783Z,2.17
2019-03-13T02:22:22.573Z,1.20
2019-03-13T02:24:54.190Z,1.40
2019-03-13T02:27:23.807Z,3.27
2019-03-13T02:29:53.493Z,1.33
2019-03-13T02:32:23.475Z,1.13
2019-03-13T02:34:53.415Z,1.83
2019-03-13T02:37:23.193Z,1.63
2019-03-13T02:39:52.924Z,1.47
2019-03-13T02:42:22.701Z,1.27
2019-03-13T02:44:52.560Z,1.20
2019-03-13T02:47:22.963Z,1.57
2019-03-13T02:49:52.773Z,1.07
2019-03-13T02:52:22.777Z,1.50
2019-03-13T02:54:52.955Z,1.33
2019-03-13T02:57:22.848Z,0.90
2019-03-13T02:59:52.595Z,0.97
2019-03-13T03:02:33.105Z,1.40
2019-03-13T03:05:03.258Z,1.35
2019-03-13T03:07:33.270Z,1.30
2019-03-13T03:10:03.117Z,1.20
2019-03-13T03:12:33.024Z,1.00
2019-03-13T03:15:05.023Z,2.10
2019-03-13T03:17:34.934Z,1.13
2019-03-13T03:20:06.004Z,1.60
2019-03-13T03:22:35.909Z,1.03
2019-03-13T03:25:06.265Z,1.07
2019-03-13T03:27:36.115Z,1.30
2019-03-13T03:30:06.691Z,1.30
2019-03-13T03:32:36.555Z,0.93
2019-03-13T03:35:06.694Z,1.63
2019-03-13T03:37:36.613Z,1.40
2019-03-13T03:40:07.889Z,3.30
2019-03-13T03:42:37.707Z,1.47
2019-03-13T03:45:07.970Z,1.47
2019-03-13T03:47:37.801Z,2.37
2019-03-13T03:50:09.779Z,0.87
2019-03-13T03:52:39.590Z,1.13
2019-03-13T03:55:09.617Z,1.30
2019-03-13T03:57:39.547Z,1.27
2019-03-13T04:00:09.519Z,2.10
2019-03-13T04:02:39.425Z,1.17
2019-03-13T04:05:10.347Z,1.43
2019-03-13T04:07:40.122Z,1.37
2019-03-13T04:10:10.328Z,1.50
2019-03-13T04:12:40.202Z,1.60
2019-03-13T04:15:10.359Z,1.60
2019-03-13T04:17:40.336Z,1.97
2019-03-13T04:20:10.228Z,2.53
2019-03-13T04:22:40.187Z,1.47
2019-03-13T04:25:35.801Z,1.30
2019-03-13T04:28:06.648Z,1.23
2019-03-13T04:30:36.666Z,1.00
2019-03-13T04:33:06.646Z,2.00
2019-03-13T04:35:36.570Z,2.07
2019-03-13T04:38:06.580Z,1.65
2019-03-13T04:40:36.540Z,2.43
2019-03-13T04:43:06.595Z,1.83
2019-03-13T04:45:36.463Z,1.73
2019-03-13T04:48:06.362Z,1.13
2019-03-13T04:50:36.101Z,1.63
2019-03-13T04:53:06.073Z,1.13
2019-03-13T04:55:36.014Z,1.80
2019-03-13T04:58:05.740Z,1.70
2019-03-13T05:00:49.752Z,1.60
2019-03-13T05:03:19.561Z,1.57
2019-03-13T05:05:51.633Z,1.87
2019-03-13T05:08:48.618Z,2.23
2019-03-13T05:11:18.407Z,2.33
2019-03-13T05:13:49.959Z,1.37
2019-03-13T05:16:19.844Z,1.40
2019-03-13T05:18:49.712Z,1.90
2019-03-13T05:21:19.537Z,1.33
2019-03-13T05:23:49.672Z,1.60
2019-03-13T05:26:19.541Z,1.33
2019-03-13T05:28:49.769Z,2.10
2019-03-13T05:31:19.652Z,1.97
2019-03-13T05:33:50.568Z,1.50
2019-03-13T05:36:20.480Z,2.33
2019-03-13T05:38:50.549Z,1.37
2019-03-13T05:41:20.485Z,1.03
2019-03-13T05:43:50.626Z,1.55
2019-03-13T05:46:20.511Z,2.07
2019-03-13T05:48:50.417Z,1.67
2019-03-13T05:51:20.278Z,1.67
2019-03-13T05:53:50.252Z,1.93
2019-03-13T05:56:20.248Z,1.80
2019-03-13T05:58:50.497Z,2.05
2019-03-13T06:01:21.197Z,2.47
2019-03-13T06:03:51.106Z,2.23
2019-03-13T06:06:22.091Z,1.83
2019-03-13T06:08:51.922Z,2.13
2019-03-13T06:11:22.101Z,2.30
2019-03-13T06:13:53.148Z,1.67
2019-03-13T06:16:23.058Z,1.67
2019-03-13T06:18:53.380Z,2.47
2019-03-13T06:21:23.585Z,2.97
2019-03-13T06:23:53.667Z,1.77
2019-03-13T06:26:23.656Z,1.90
2019-03-13T06:28:57.691Z,2.72
2019-03-13T06:31:27.719Z,1.77
2019-03-13T06:33:57.777Z,1.92
2019-03-13T06:36:27.556Z,1.47
2019-03-13T06:38:57.649Z,2.20
2019-03-13T06:41:27.570Z,1.90
2019-03-13T06:43:57.664Z,1.97
2019-03-13T06:46:27.500Z,2.27
2019-03-13T06:48:57.821Z,2.37
2019-03-13T06:51:27.856Z,2.00
2019-03-13T06:53:58.237Z,1.87
2019-03-13T06:56:28.209Z,1.83
2019-03-13T06:59:03.590Z,1.57
2019-03-13T07:01:49.406Z,2.70
2019-03-13T07:04:41.484Z,1.73
2019-03-13T07:07:40.855Z,6.50
2019-03-13T07:10:28.833Z,2.10
2019-03-13T07:13:07.863Z,1.47
2019-03-13T07:15:48.734Z,1.37
2019-03-13T07:18:38.869Z,2.40
2019-03-13T07:21:35.115Z,1.83
2019-03-13T07:24:13.389Z,2.30
2019-03-13T07:26:47.939Z,2.37
2019-03-13T07:29:36.966Z,1.77
2019-03-13T07:32:24.982Z,2.73
2019-03-13T07:35:12.773Z,1.73
2019-03-13T07:37:50.374Z,1.60
2019-03-13T07:40:51.699Z,2.07
2019-03-13T07:43:33.696Z,1.80
2019-03-13T07:46:41.082Z,1.72
2019-03-13T07:49:30.693Z,2.83
2019-03-13T07:52:19.899Z,1.87
2019-03-13T07:55:09.328Z,1.33
2019-03-13T07:57:58.286Z,1.30
2019-03-13T08:00:46.222Z,2.40
2019-03-13T08:03:28.679Z,2.00
2019-03-13T08:06:16.496Z,1.73
2019-03-13T08:09:08.507Z,1.70
2019-03-13T08:11:47.795Z,1.87
2019-03-13T08:14:29.434Z,2.10
2019-03-13T08:17:30.450Z,1.70
2019-03-13T08:20:37.882Z,2.30
2019-03-13T08:23:30.478Z,2.13
2019-03-13T08:26:20.784Z,1.87
2019-03-13T08:29:08.310Z,1.40
2019-03-13T08:31:47.173Z,1.40
2019-03-13T08:34:31.616Z,1.67
2019-03-13T08:37:17.067Z,2.67
2019-03-13T08:40:15.960Z,1.42
2019-03-13T08:43:23.111Z,2.20
2019-03-13T08:46:11.262Z,1.33
2019-03-13T08:48:55.559Z,1.90
2019-03-13T08:51:43.006Z,1.30
2019-03-13T08:54:30.778Z,1.75
2019-03-13T08:57:15.585Z,2.07
2019-03-13T08:59:53.204Z,2.70
2019-03-13T09:02:49.929Z,1.77
2019-03-13T09:05:38.744Z,1.87
2019-03-13T09:08:26.535Z,1.30
2019-03-13T09:11:14.510Z,1.30
2019-03-13T09:13:58.757Z,1.50
2019-03-13T09:16:50.440Z,1.67
2019-03-13T09:19:40.837Z,1.87
2019-03-13T09:22:21.657Z,2.20
2019-03-13T09:25:16.915Z,1.80
2019-03-13T09:28:24.297Z,1.53
2019-03-13T09:31:20.199Z,1.30
2019-03-13T09:34:07.673Z,1.70
2019-03-13T09:36:55.729Z,1.80
2019-03-13T09:39:41.404Z,1.90
2019-03-13T09:42:33.529Z,2.20
2019-03-13T09:45:13.738Z,2.27
2019-03-13T09:47:58.771Z,1.70
2019-03-13T09:50:50.602Z,1.30
2019-03-13T09:53:28.641Z,2.53
2019-03-13T09:56:24.144Z,2.08
2019-03-13T09:59:20.445Z,2.17
2019-03-13T10:02:15.707Z,1.53
2019-03-13T10:05:05.623Z,1.70
2019-03-13T10:07:56.228Z,1.40
2019-03-13T10:10:32.420Z,1.77
2019-03-13T10:13:14.828Z,1.57
2019-03-13T10:16:04.459Z,1.73
2019-03-13T10:18:59.253Z,2.23
2019-03-13T10:21:42.504Z,1.30
2019-03-13T10:24:21.228Z,1.53
2019-03-13T10:27:23.747Z,1.20
2019-03-13T10:30:11.957Z,1.47
2019-03-13T10:32:59.426Z,1.13
2019-03-13T10:35:47.259Z,1.63
2019-03-13T10:38:34.754Z,1.73
2019-03-13T10:41:26.623Z,1.73
2019-03-13T10:44:11.013Z,2.10
2019-03-13T10:46:51.984Z,1.73
2019-03-13T10:49:35.204Z,1.60
2019-03-13T10:52:12.780Z,1.70
2019-03-13T10:55:01.727Z,1.57
2019-03-13T10:57:40.499Z,1.93
2019-03-13T11:01:16.789Z,2.35
2019-03-13T11:04:13.480Z,1.30
2019-03-13T11:06:55.341Z,1.80
2019-03-13T11:09:49.706Z,2.10
2019-03-13T11:12:38.516Z,1.87
2019-03-13T11:15:28.189Z,1.63
2019-03-13T11:18:11.647Z,1.50
2019-03-13T11:21:00.591Z,1.83
2019-03-13T11:23:40.557Z,2.00
2019-03-13T11:26:35.373Z,2.13
2019-03-13T11:29:11.008Z,1.50
2019-03-13T11:32:00.095Z,1.67
2019-03-13T11:34:49.934Z,1.77
2019-03-13T11:37:37.889Z,2.03
2019-03-13T11:40:43.826Z,2.03
2019-03-13T11:43:35.776Z,1.57
2019-03-13T11:46:27.716Z,1.40
2019-03-13T11:49:16.785Z,1.92
2019-03-13T11:52:04.243Z,2.25
2019-03-13T11:54:51.844Z,2.00
2019-03-13T11:57:31.460Z,1.93
2019-03-13T12:00:21.447Z,1.92
2019-03-13T12:03:22.996Z,1.40
2019-03-13T12:06:18.768Z,1.63
2019-03-13T12:09:00.988Z,1.73
2019-03-13T12:11:40.540Z,1.77
2019-03-13T12:14:29.162Z,1.98
2019-03-13T12:17:33.262Z,1.90
2019-03-13T12:20:37.602Z,1.60
2019-03-13T12:23:35.612Z,1.90
2019-03-13T12:26:17.055Z,1.93
2019-03-13T12:28:56.301Z,1.80
2019-03-13T12:31:46.238Z,1.98
2019-03-13T12:34:35.557Z,2.13
2019-03-13T12:37:36.534Z,1.30
2019-03-13T12:40:29.200Z,3.40
2019-03-13T12:43:18.193Z,2.70
2019-03-13T12:45:58.510Z,2.50
2019-03-13T12:48:40.212Z,1.47
2019-03-13T12:51:35.319Z,2.00
2019-03-13T12:54:25.014Z,2.22
2019-03-13T12:57:15.243Z,1.67
2019-03-13T13:00:01.379Z,2.33
2019-03-13T13:02:46.369Z,2.47
2019-03-13T13:05:23.514Z,1.43
2019-03-13T13:08:28.919Z,2.23
2019-03-13T13:11:23.927Z,1.00
2019-03-13T13:14:11.101Z,1.93
2019-03-13T13:17:00.078Z,1.85
2019-03-13T13:19:35.117Z,1.57
2019-03-13T13:22:05.288Z,1.40
2019-03-13T13:24:38.586Z,1.40
2019-03-13T13:27:08.809Z,1.40
2019-03-13T13:29:40.505Z,1.40
2019-03-13T13:32:10.717Z,1.23
2019-03-13T13:34:41.903Z,1.07
2019-03-13T13:37:12.022Z,1.27
2019-03-13T13:39:42.235Z,1.77
2019-03-13T13:42:12.785Z,2.77
2019-03-13T13:44:42.769Z,1.37
2019-03-13T13:47:12.784Z,1.23
2019-03-13T13:49:42.662Z,1.85
2019-03-13T13:52:12.777Z,1.77
2019-03-13T13:54:42.934Z,1.20
2019-03-13T13:57:13.154Z,1.20
2019-03-13T13:59:44.046Z,1.98
2019-03-13T14:02:17.265Z,1.30
2019-03-13T14:04:48.225Z,1.20
2019-03-13T14:07:18.185Z,2.00
2019-03-13T14:09:49.778Z,1.30
2019-03-13T14:12:20.327Z,1.30
2019-03-13T14:14:50.475Z,1.60
2019-03-13T14:17:20.870Z,2.03
2019-03-13T14:19:51.334Z,1.40
2019-03-13T14:22:21.732Z,1.30
2019-03-13T14:24:54.730Z,1.37
2019-03-13T14:27:24.557Z,1.13
2019-03-13T14:29:55.053Z,1.83
2019-03-13T14:32:25.395Z,1.23
2019-03-13T14:35:02.388Z,1.80
2019-03-13T14:37:32.512Z,1.47
2019-03-13T14:40:02.445Z,1.40
2019-03-13T14:42:33.275Z,2.10
2019-03-13T14:45:03.248Z,1.60
2019-03-13T14:47:33.096Z,1.60
2019-03-13T14:50:02.959Z,1.65
2019-03-13T14:53:07.878Z,1.53
2019-03-13T14:55:37.666Z,1.30
2019-03-13T14:58:07.506Z,1.00
2019-03-13T15:00:38.492Z,1.23
2019-03-13T15:03:12.620Z,1.20
2019-03-13T15:05:42.698Z,1.67
2019-03-13T15:08:12.946Z,1.70
2019-03-13T15:10:44.098Z,1.50
2019-03-13T15:13:14.013Z,2.45
2019-03-13T15:15:54.677Z,1.70
2019-03-13T15:18:24.623Z,1.60
2019-03-13T15:20:54.500Z,1.80
2019-03-13T15:23:26.641Z,1.60
2019-03-13T15:25:56.974Z,2.03
2019-03-13T15:28:26.967Z,2.67
2019-03-13T15:30:57.113Z,2.23
2019-03-13T15:33:27.308Z,1.30
2019-03-13T15:36:03.666Z,1.80
2019-03-13T15:38:33.755Z,1.40
2019-03-13T15:41:03.764Z,1.17
2019-03-13T15:43:34.978Z,1.00
2019-03-13T15:46:05.217Z,1.15
2019-03-13T15:48:35.286Z,1.17
2019-03-13T15:51:05.588Z,0.98
2019-03-13T15:53:36.478Z,1.10
2019-03-13T15:56:22.771Z,1.20
2019-03-13T15:59:01.217Z,1.27
2019-03-13T16:01:31.289Z,1.40
2019-03-13T16:04:01.405Z,1.40
2019-03-13T16:06:31.168Z,1.30
2019-03-13T16:09:01.149Z,1.25
2019-03-13T16:11:32.663Z,1.60
2019-03-13T16:14:04.956Z,1.40
2019-03-13T16:16:34.929Z,1.53
2019-03-13T16:19:05.004Z,1.22
2019-03-13T16:21:35.827Z,1.57
2019-03-13T16:24:05.809Z,1.30
2019-03-13T16:26:39.077Z,0.90
2019-03-13T16:29:11.253Z,2.33
2019-03-13T16:31:43.098Z,1.70
2019-03-13T16:34:20.608Z,2.27
2019-03-13T16:36:53.271Z,2.42
2019-03-13T16:39:28.071Z,4.78
2019-03-13T16:42:04.693Z,1.70
2019-03-13T16:44:38.220Z,1.97
2019-03-13T16:47:18.227Z,1.90
2019-03-13T16:49:48.204Z,1.87
2019-03-13T16:52:18.171Z,7.03
2019-03-13T16:54:47.991Z,2.10
2019-03-13T16:57:18.022Z,1.97
2019-03-13T17:00:00.127Z,2.47
2019-03-13T17:02:19.888Z,2.27
2019-03-13T17:04:49.965Z,2.20
2019-03-13T17:07:20.100Z,2.40
2019-03-13T17:09:50.188Z,1.67
2019-03-13T17:12:20.222Z,2.17
2019-03-13T17:14:50.125Z,2.00
2019-03-13T17:17:20.247Z,2.27
2019-03-13T17:19:50.287Z,1.93
2019-03-13T17:22:26.152Z,2.37
2019-03-13T17:24:56.242Z,2.23
2019-03-13T17:27:26.138Z,2.60
2019-03-13T17:29:57.252Z,3.10
2019-03-13T17:32:28.530Z,2.63
2019-03-13T17:34:59.666Z,2.40
2019-03-13T17:37:29.749Z,2.10
2019-03-13T17:39:59.823Z,2.13
2019-03-13T17:42:34.056Z,2.13
2019-03-13T17:45:10.095Z,2.00
2019-03-13T17:47:40.028Z,2.43
2019-03-13T17:50:11.587Z,2.57
2019-03-13T17:52:41.638Z,2.27
2019-03-13T17:55:12.270Z,2.07
2019-03-13T17:57:42.200Z,1.90
2019-03-13T18:00:17.895Z,1.80
2019-03-13T18:02:48.314Z,1.40
2019-03-13T18:05:18.568Z,2.90
2019-03-13T18:07:48.954Z,2.22
2019-03-13T18:10:19.070Z,2.00
2019-03-13T18:12:49.485Z,1.87
2019-03-13T18:15:19.431Z,2.63
2019-03-13T18:17:52.056Z,2.67
2019-03-13T18:20:22.230Z,3.00
2019-03-13T18:22:52.312Z,3.77
2019-03-13T18:25:24.294Z,3.07
2019-03-13T18:27:55.719Z,3.10
2019-03-13T18:30:26.953Z,3.80
2019-03-13T18:32:57.215Z,3.13
2019-03-13T18:35:27.188Z,2.27
2019-03-13T18:37:57.235Z,4.13
2019-03-13T18:40:27.652Z,3.47
2019-03-13T18:42:57.792Z,4.00
2019-03-13T18:45:51.363Z,3.45
2019-03-13T18:48:19.621Z,3.63
2019-03-13T18:50:50.082Z,2.90
2019-03-13T18:53:19.953Z,2.37
2019-03-13T18:55:50.082Z,3.67
2019-03-13T18:58:20.847Z,3.30
2019-03-13T19:00:50.946Z,3.40
2019-03-13T19:03:20.958Z,3.57
2019-03-13T19:05:50.734Z,3.10
2019-03-13T19:08:20.579Z,2.70
2019-03-13T19:10:50.497Z,3.30
2019-03-13T19:13:20.499Z,2.60
2019-03-13T19:15:50.392Z,3.17
2019-03-13T19:18:20.269Z,2.60
2019-03-13T19:20:53.796Z,2.43
2019-03-13T19:23:22.861Z,3.10
2019-03-13T19:25:52.850Z,2.52
2019-03-13T19:28:22.701Z,2.90
2019-03-13T19:30:53.307Z,4.00
2019-03-13T19:33:23.122Z,3.83
2019-03-13T19:35:53.892Z,4.00
2019-03-13T19:38:23.957Z,4.23
2019-03-13T19:40:54.348Z,3.77
2019-03-13T19:43:24.199Z,4.27
2019-03-13T19:45:54.223Z,4.13
2019-03-13T19:48:24.312Z,3.33
2019-03-13T19:50:56.538Z,3.37
2019-03-13T19:53:25.966Z,3.57
2019-03-13T19:55:55.980Z,3.87
2019-03-13T19:58:25.800Z,4.50
2019-03-13T20:00:56.773Z,3.00
2019-03-13T20:03:26.835Z,4.22
2019-03-13T20:06:02.570Z,3.07
2019-03-13T20:08:32.762Z,2.87
2019-03-13T20:11:04.938Z,3.20
2019-03-13T20:13:35.009Z,3.45
2019-03-13T20:16:05.225Z,3.87
2019-03-13T20:18:35.123Z,3.20
2019-03-13T20:21:05.220Z,4.10
2019-03-13T20:23:35.881Z,3.83
2019-03-13T20:26:05.828Z,2.90
2019-03-13T20:28:36.251Z,2.90
2019-03-13T20:31:07.809Z,3.10
2019-03-13T20:33:37.755Z,2.47
2019-03-13T20:36:08.031Z,3.33
2019-03-13T20:38:37.981Z,3.23
2019-03-13T20:41:07.943Z,3.45
2019-03-13T20:43:42.041Z,3.20
2019-03-13T20:46:15.813Z,3.93
2019-03-13T20:48:47.565Z,3.00
2019-03-13T20:51:20.570Z,2.77
2019-03-13T20:53:51.399Z,3.20
2019-03-13T20:56:22.509Z,2.37
2019-03-13T20:58:52.888Z,3.87
2019-03-13T21:01:23.027Z,3.07
2019-03-13T21:03:53.436Z,2.80
2019-03-13T21:06:24.787Z,2.90
2019-03-13T21:08:54.940Z,2.47
2019-03-13T21:11:26.563Z,1.97
2019-03-13T21:13:59.183Z,2.07
2019-03-13T21:16:29.147Z,2.80
2019-03-13T21:18:59.406Z,3.20
2019-03-13T21:21:30.017Z,3.13
2019-03-13T21:24:00.039Z,2.07
2019-03-13T21:26:32.702Z,2.27
2019-03-13T21:29:10.369Z,2.63
2019-03-13T21:31:41.375Z,2.65
2019-03-13T21:34:11.271Z,2.50
2019-03-13T21:36:44.244Z,2.13
2019-03-13T21:39:14.544Z,2.53
2019-03-13T21:41:44.906Z,2.97
2019-03-13T21:44:14.968Z,2.20
2019-03-13T21:46:45.303Z,2.87
2019-03-13T21:49:16.895Z,2.87
2019-03-13T21:52:00.114Z,2.90
2019-03-13T21:54:30.344Z,2.93
2019-03-13T21:57:00.641Z,3.00
2019-03-13T21:59:31.939Z,2.97
2019-03-13T22:02:03.967Z,3.07
2019-03-13T22:04:37.332Z,2.90
2019-03-13T22:07:10.957Z,2.30
2019-03-13T22:09:42.122Z,3.37
2019-03-13T22:12:19.151Z,3.20
2019-03-13T22:14:48.793Z,2.83
2019-03-13T22:17:19.186Z,2.90
2019-03-13T22:19:49.114Z,3.85
2019-03-13T22:22:18.951Z,3.43
2019-03-13T22:24:50.056Z,3.47
2019-03-13T22:27:22.071Z,3.83
2019-03-13T22:29:52.399Z,2.85
2019-03-13T22:32:22.271Z,2.90
2019-03-13T22:34:52.544Z,2.57
2019-03-13T22:37:28.548Z,3.97
2019-03-13T22:40:03.770Z,3.17
2019-03-13T22:42:40.851Z,3.52
2019-03-13T22:45:12.431Z,3.20
2019-03-13T22:47:44.582Z,2.57
2019-03-13T22:50:16.480Z,3.33
2019-03-13T22:52:56.227Z,3.40
2019-03-13T22:55:28.297Z,3.22
2019-03-13T22:58:01.397Z,3.10
2019-03-13T23:00:53.555Z,3.03
2019-03-13T23:03:26.475Z,3.10
2019-03-13T23:05:57.150Z,2.67
2019-03-13T23:08:27.215Z,2.27
2019-03-13T23:11:01.567Z,2.43
2019-03-13T23:13:31.674Z,3.30
2019-03-13T23:16:01.683Z,2.47
2019-03-13T23:18:31.580Z,1.70
2019-03-13T23:21:01.486Z,2.90
2019-03-13T23:23:31.305Z,2.10
2019-03-13T23:26:01.275Z,2.20
2019-03-13T23:28:31.146Z,1.90
2019-03-13T23:31:01.095Z,3.40
2019-03-13T23:33:31.410Z,2.33
2019-03-13T23:36:01.343Z,2.13
2019-03-13T23:38:32.260Z,2.17
2019-03-13T23:41:04.141Z,2.50
2019-03-13T23:43:34.213Z,2.43
2019-03-13T23:46:04.186Z,2.57
2019-03-13T23:48:34.177Z,2.60
2019-03-13T23:51:04.356Z,2.60
2019-03-13T23:53:34.130Z,2.80
2019-03-13T23:56:03.972Z,2.90
2019-03-13T23:58:33.796Z,3.30
